Hauptseite
METAR-TAF:

METAR-TAF

Flughäfen :

Flughafen San Salvador

El Salvador, El Salvador

Breite: 13-26N, Länge: 089-03W, Höhe: 25 m

Beobachtung

Neuester Wetterbericht von vor 31 Minuten, um 08:00 UTC
Wind 3 kt aus Nord/Nordwest, variierte zwischen West/Nordwest und Nordost
Temperatur 26°C
Luftfeuchtigkeit 100%
Luftdruck 1013 hPa
Sichtweite 10 km oder mehr
Aufgelockert bewölkt in der Höhe von 6000 ft

METAR: MSLP 240800Z 34003KT 300V040 9999 SCT060 26/26 Q1012 A2991 NOSIG

Zeit: 02:31 (08:31 UTC)

Prognose

Neuester Wetterbericht von vor 4 Stunden und 31 Minuten, um 04:00 UTC
Gültige Prognose vom 24 um 06 UTC bis 25 um 06 UTC
Wind 2 kt aus unterschiedlichen Richtungen
Sichtweite 10 km oder mehr
Leicht bewölkt in der Höhe von 2700 ft
Ab 24 um 1300 UTC
Wind 6 kt aus Nordost
Sichtweite 10 km oder mehr
Leicht bewölkt in der Höhe von 3000 ft
Ab 24 um 1700 UTC
Wind 6 kt aus Süd/Südwest
Sichtweite 10 km oder mehr
Leicht bewölkt in der Höhe von 3300 ft
Ab 25 um 0100 UTC
Wind 2 kt aus unterschiedlichen Richtungen
Sichtweite 10 km oder mehr
Leicht bewölkt in der Höhe von 2700 ft
Leicht bewölkt in der Höhe von 3700 ft, Kumulonimbus.
Zeitweise
vom 25 um 05 UTC bis 25 um 06 UTC
Wind 5 kt aus Nord/Nordwest
Sichtweite 10 km oder mehr
Aufgelockert bewölkt in der Höhe von 2700 ft
Aufgelockert bewölkt in der Höhe von 3000 ft, Kumulonimbus.
Durchbrochene Bewölkung in der Höhe von 6000 ft
Leicht bewölkt in der Höhe von 2300 ft
Gewitter, Regen
Ab 24 um 1300 UTC
Wind 5 kt aus Nord/Nordwest
Sichtweite 10 km oder mehr
Leicht bewölkt in der Höhe von 2700 ft
Ab 24 um 1800 UTC
Wind 5 kt aus Süd
Sichtweite 10 km oder mehr
Aufgelockert bewölkt in der Höhe von 3000 ft
Leicht bewölkt in der Höhe von 3700 ft, Kumulonimbus.
Ab 25 um 0100 UTC
Wind 4 kt aus Nord/Nordwest
Sichtweite 10 km oder mehr
Leicht bewölkt in der Höhe von 3000 ft
Leicht bewölkt in der Höhe von 4000 ft, Kumulonimbus.

TAF: MSLP 240400Z 2406/2506 VRB02KT 9999 FEW027 TX34/2418Z TN24/2410Z FM241300 04006KT 9999 FEW030 FM241700 20006KT 9999 FEW033 FM250100 VRB02KT 9999 FEW027 FEW037CB TEMPO 2505/2506 06008KT 6000 TSRA SCT027 SCT030CB BKN060 MSSS 240400Z 2406/2506 34005KT 9999 FEW023 TX32/2420Z TN22/2412Z FM241300 34005KT 9999 FEW027 FM241800 17005KT 9999 SCT030 FEW037CB FM250100 33004KT 9999 FEW030 FEW040CB

Wetterbeobachtungen und Prognosen von mehr als 4000 Flughäfen (METAR und TAF Bericht).

Die verfügbaren Stationen werden durch gelbe und rote Markierungen auf der Karte dargestellt.

Führen Sie die Maus auf sie, um den Namen der Station zu sehen.

Darauf klicken, um die Beobachtung von Wetterbeobachtungen und Prognosen zu sehen.

Um die Karte zu ändern : klicken Sie auf den grünen Tasten mit einem schwarzen Kreuz Zum Vergrößern, auf den grünen Button mit einem Gedankenstrich zu verkleinern, oder auf die grünen Pfeile für benachbarte Karten.


METAR-TAF: